createdAt,value
2017-12-21T04:31:06.934Z,7.40
2017-12-21T04:33:34.508Z,6.60
2017-12-21T04:36:02.909Z,6.32
2017-12-21T04:38:30.487Z,5.90
2017-12-21T04:40:58.061Z,7.60
2017-12-21T04:43:25.661Z,6.30
2017-12-21T04:45:53.997Z,7.60
2017-12-21T04:48:21.565Z,6.97
2017-12-21T04:50:49.161Z,7.40
2017-12-21T04:53:16.732Z,9.95
2017-12-21T04:55:44.352Z,7.90
2017-12-21T04:58:11.920Z,9.02
2017-12-21T05:00:40.257Z,7.12
2017-12-21T05:03:07.890Z,11.38
2017-12-21T05:05:35.462Z,5.40
2017-12-21T05:08:03.029Z,6.65
2017-12-21T05:10:30.666Z,8.18
2017-12-21T05:12:58.238Z,7.32
2017-12-21T05:15:25.809Z,12.65
2017-12-21T05:17:53.431Z,8.45
2017-12-21T05:20:21.008Z,8.85
2017-12-21T05:22:49.946Z,8.98
2017-12-21T05:25:17.567Z,7.25
2017-12-21T05:27:45.145Z,8.73
2017-12-21T05:30:12.729Z,11.10
2017-12-21T05:32:40.349Z,6.18
2017-12-21T05:35:07.917Z,6.45
2017-12-21T05:37:35.497Z,7.20
2017-12-21T05:40:03.092Z,10.20
2017-12-21T05:42:30.662Z,4.87
2017-12-21T05:44:58.389Z,7.95
2017-12-21T05:47:26.726Z,8.65
2017-12-21T05:49:54.298Z,7.30
2017-12-21T05:52:21.906Z,6.62
2017-12-21T05:54:49.472Z,7.30
2017-12-21T05:57:17.042Z,5.62
2017-12-21T05:59:44.681Z,8.15
2017-12-21T06:02:12.249Z,5.90
2017-12-21T06:04:39.817Z,7.65
2017-12-21T06:07:07.421Z,7.10
2017-12-21T06:09:34.993Z,7.22
2017-12-21T06:12:03.333Z,8.85
2017-12-21T06:14:30.930Z,8.27
2017-12-21T06:16:59.269Z,6.93
2017-12-21T06:19:26.841Z,6.97
2017-12-21T06:21:54.465Z,4.35
2017-12-21T06:24:22.044Z,13.50
2017-12-21T06:26:49.629Z,5.78
2017-12-21T06:29:17.245Z,6.45
2017-12-21T06:31:44.818Z,6.50
2017-12-21T06:34:12.389Z,6.28
2017-12-21T06:36:40.005Z,11.40
2017-12-21T06:39:07.573Z,5.80
2017-12-21T06:41:35.145Z,4.00
2017-12-21T06:44:02.762Z,7.45
2017-12-21T06:46:31.097Z,5.68
2017-12-21T06:48:58.666Z,5.12
2017-12-21T06:51:26.281Z,4.65
2017-12-21T06:53:53.853Z,6.20
2017-12-21T06:56:21.421Z,8.88
2017-12-21T06:58:49.038Z,9.70
2017-12-21T07:01:16.614Z,6.65
2017-12-21T07:03:44.193Z,7.82
2017-12-21T07:06:11.801Z,10.23
2017-12-21T07:08:40.141Z,7.05
2017-12-21T07:11:07.710Z,7.90
2017-12-21T07:13:35.498Z,6.85
2017-12-21T07:16:03.833Z,8.05
2017-12-21T07:18:32.254Z,7.78
2017-12-21T07:21:00.636Z,9.18
2017-12-21T07:23:28.980Z,7.75
2017-12-21T07:25:56.629Z,8.98
2017-12-21T07:28:24.257Z,8.73
2017-12-21T07:30:51.826Z,8.52
2017-12-21T07:33:19.401Z,9.20
2017-12-21T07:35:47.028Z,11.85
2017-12-21T07:38:14.596Z,8.70
2017-12-21T07:40:42.170Z,11.25
2017-12-21T07:43:09.809Z,11.63
2017-12-21T07:45:37.385Z,18.48
2017-12-21T07:48:04.969Z,11.55
2017-12-21T07:50:32.597Z,10.55
2017-12-21T07:53:00.170Z,13.45
2017-12-21T07:55:27.745Z,11.73
2017-12-21T07:57:55.354Z,13.57
2017-12-21T08:00:22.929Z,11.40
2017-12-21T08:02:50.515Z,10.27
2017-12-21T08:05:18.122Z,8.63
2017-12-21T08:07:46.493Z,8.63
2017-12-21T08:10:14.831Z,10.15
2017-12-21T08:12:42.453Z,9.45
2017-12-21T08:15:10.135Z,10.23
2017-12-21T08:17:37.717Z,10.05
2017-12-21T08:20:05.357Z,10.00
2017-12-21T08:22:32.924Z,9.45
2017-12-21T08:25:00.493Z,9.40
2017-12-21T08:27:28.196Z,10.00
2017-12-21T08:29:56.537Z,11.10
2017-12-21T08:32:24.119Z,10.55
2017-12-21T08:34:52.486Z,9.38
2017-12-21T08:37:20.062Z,10.30
2017-12-21T08:39:48.401Z,15.20
2017-12-21T08:42:16.006Z,11.60
2017-12-21T08:44:43.580Z,11.68
2017-12-21T08:47:11.177Z,9.13
2017-12-21T08:49:38.878Z,13.98
2017-12-21T08:52:08.934Z,9.13
2017-12-21T08:54:36.590Z,10.15
2017-12-21T08:57:04.162Z,8.75
2017-12-21T08:59:31.765Z,10.00
2017-12-21T09:02:00.130Z,9.98
2017-12-21T09:04:27.701Z,8.55
2017-12-21T09:06:56.126Z,9.98
2017-12-21T09:09:23.749Z,10.05
2017-12-21T09:11:52.085Z,7.05
2017-12-21T09:14:19.663Z,10.07
2017-12-21T09:16:48.049Z,10.65
2017-12-21T09:19:16.389Z,14.80
2017-12-21T09:21:43.977Z,13.30
2017-12-21T09:24:11.580Z,13.77
2017-12-21T09:26:39.186Z,11.77
2017-12-21T09:29:06.757Z,13.02
2017-12-21T09:31:35.102Z,11.20
2017-12-21T09:34:02.714Z,12.00
2017-12-21T09:36:30.293Z,10.88
2017-12-21T09:38:57.870Z,15.82
2017-12-21T09:41:25.502Z,12.15
2017-12-21T09:43:53.078Z,8.88
2017-12-21T09:46:20.662Z,9.38
2017-12-21T09:48:48.294Z,14.75
2017-12-21T09:51:15.879Z,12.07
2017-12-21T09:53:43.449Z,9.60
2017-12-21T09:56:11.088Z,14.00
2017-12-21T09:58:38.666Z,8.82
2017-12-21T10:01:06.237Z,10.05
2017-12-21T10:03:33.829Z,7.85
2017-12-21T10:06:01.401Z,9.95
2017-12-21T10:08:28.997Z,8.70
2017-12-21T10:10:56.624Z,8.63
2017-12-21T10:13:24.170Z,9.00
2017-12-21T10:15:51.833Z,6.78
2017-12-21T10:18:19.397Z,8.70
2017-12-21T10:20:46.966Z,8.52
2017-12-21T10:23:14.561Z,10.00
2017-12-21T10:25:42.186Z,7.32
2017-12-21T10:28:09.758Z,7.28
2017-12-21T10:30:37.325Z,7.82
2017-12-21T10:33:04.946Z,8.02
2017-12-21T10:35:32.517Z,11.15
2017-12-21T10:38:00.093Z,11.25
2017-12-21T10:40:27.738Z,14.45
2017-12-21T10:42:55.316Z,17.50
2017-12-21T10:45:22.889Z,15.50
2017-12-21T10:47:51.257Z,20.00
2017-12-21T10:50:18.877Z,16.12
2017-12-21T10:52:46.453Z,12.05
2017-12-21T10:55:14.029Z,18.67
2017-12-21T10:57:41.677Z,11.07
2017-12-21T11:00:09.257Z,12.35
2017-12-21T11:02:36.837Z,14.85
2017-12-21T11:05:05.211Z,12.95
2017-12-21T11:07:33.798Z,12.48
2017-12-21T11:10:02.145Z,13.25
2017-12-21T11:12:29.721Z,10.32
2017-12-21T11:14:57.318Z,9.57
2017-12-21T11:17:24.895Z,7.37
2017-12-21T11:19:52.466Z,9.10
2017-12-21T11:22:20.062Z,7.72
2017-12-21T11:24:48.397Z,6.60
2017-12-21T11:27:15.977Z,10.20
2017-12-21T11:29:43.598Z,7.22
2017-12-21T11:32:11.177Z,5.87
2017-12-21T11:34:38.749Z,7.03
2017-12-21T11:37:06.369Z,8.25
2017-12-21T11:39:33.945Z,9.38
2017-12-21T11:42:01.522Z,6.15
2017-12-21T11:44:29.141Z,6.47
2017-12-21T11:46:56.722Z,6.50
2017-12-21T11:49:24.297Z,7.55
2017-12-21T11:51:51.913Z,6.60
2017-12-21T11:54:19.481Z,8.20
2017-12-21T11:56:47.054Z,5.97
2017-12-21T11:59:14.658Z,6.90
2017-12-21T12:01:42.999Z,4.72
2017-12-21T12:04:10.568Z,5.93
2017-12-21T12:06:38.167Z,8.88
2017-12-21T12:09:06.514Z,5.50
2017-12-21T12:11:34.085Z,4.80
2017-12-21T12:14:01.677Z,5.12
2017-12-21T12:16:29.249Z,6.00
2017-12-21T12:18:56.858Z,6.03
2017-12-21T12:21:24.438Z,5.45
2017-12-21T12:23:52.778Z,5.85
2017-12-21T12:26:20.449Z,5.32
2017-12-21T12:28:48.021Z,4.97
2017-12-21T12:31:16.357Z,9.23
2017-12-21T12:33:44.086Z,8.60
2017-12-21T12:36:11.652Z,6.32
2017-12-21T12:38:39.226Z,7.20
2017-12-21T12:41:06.853Z,5.00
2017-12-21T12:43:35.263Z,4.97
2017-12-21T12:46:02.834Z,6.00
2017-12-21T12:48:30.445Z,6.65
2017-12-21T12:50:58.785Z,6.00
2017-12-21T12:53:26.358Z,6.62
2017-12-21T12:55:53.986Z,5.90
2017-12-21T12:58:21.562Z,5.97
2017-12-21T13:00:49.146Z,4.57
2017-12-21T13:03:17.541Z,4.22
2017-12-21T13:05:45.877Z,6.37
2017-12-21T13:08:13.445Z,4.90
2017-12-21T13:10:41.069Z,5.68
2017-12-21T13:13:08.641Z,5.20
2017-12-21T13:15:36.214Z,8.20
2017-12-21T13:18:03.810Z,9.50
2017-12-21T13:20:31.386Z,6.20
2017-12-21T13:22:59.004Z,6.82
2017-12-21T13:25:26.573Z,6.35
2017-12-21T13:27:54.962Z,7.93
2017-12-21T13:30:22.558Z,6.93
2017-12-21T13:32:50.132Z,8.52
2017-12-21T13:35:17.717Z,6.37
2017-12-21T13:37:46.103Z,8.52
2017-12-21T13:40:14.452Z,7.82
2017-12-21T13:42:42.853Z,6.65
2017-12-21T13:45:11.241Z,6.62
2017-12-21T13:47:39.582Z,7.00
2017-12-21T13:50:07.149Z,7.65
2017-12-21T13:52:34.775Z,7.72
2017-12-21T13:55:02.354Z,7.80
2017-12-21T13:57:29.931Z,6.68
2017-12-21T13:59:57.529Z,10.52
2017-12-21T14:02:25.101Z,8.23
2017-12-21T14:04:52.685Z,10.02
2017-12-21T14:07:20.305Z,8.10
2017-12-21T14:09:47.873Z,9.05
2017-12-21T14:12:15.454Z,9.32
2017-12-21T14:14:43.046Z,7.53
2017-12-21T14:17:10.622Z,7.68
2017-12-21T14:19:39.008Z,9.80
2017-12-21T14:22:06.586Z,10.57
2017-12-21T14:24:34.169Z,11.55
2017-12-21T14:27:01.790Z,11.00
2017-12-21T14:29:29.366Z,9.52
2017-12-21T14:31:56.937Z,11.77
2017-12-21T14:34:24.539Z,10.95
2017-12-21T14:36:52.885Z,9.95
2017-12-21T14:39:20.506Z,10.00
2017-12-21T14:41:48.086Z,16.17
2017-12-21T14:44:15.662Z,15.93
2017-12-21T14:46:43.302Z,21.87
2017-12-21T14:49:10.901Z,22.65
2017-12-21T14:51:38.481Z,21.60
2017-12-21T14:54:06.911Z,20.30
2017-12-21T14:56:34.499Z,25.42
2017-12-21T14:59:02.090Z,30.08
2017-12-21T15:01:29.709Z,26.95
2017-12-21T15:03:57.288Z,25.02
2017-12-21T15:06:25.625Z,32.58
2017-12-21T15:08:53.229Z,31.52
2017-12-21T15:11:21.573Z,34.13
2017-12-21T15:13:49.190Z,37.30
2017-12-21T15:16:16.770Z,30.23
2017-12-21T15:18:44.348Z,29.35
2017-12-21T15:21:12.008Z,30.85
2017-12-21T15:23:39.598Z,31.08
2017-12-21T15:26:07.990Z,21.58
2017-12-21T15:28:35.582Z,20.35
2017-12-21T15:31:03.163Z,27.15
2017-12-21T15:33:30.782Z,19.77
2017-12-21T15:35:58.366Z,22.67
2017-12-21T15:38:25.938Z,12.45
2017-12-21T15:40:53.562Z,9.32
2017-12-21T15:43:21.213Z,8.20
2017-12-21T15:45:48.787Z,8.05
2017-12-21T15:48:16.362Z,7.65
2017-12-21T15:50:43.961Z,10.43
2017-12-21T15:53:12.345Z,11.15
2017-12-21T15:55:40.686Z,9.25
2017-12-21T15:58:08.275Z,9.00
2017-12-21T16:00:36.646Z,8.23
2017-12-21T16:03:04.227Z,15.65
2017-12-21T16:05:31.818Z,16.20
2017-12-21T16:07:59.430Z,13.30
2017-12-21T16:10:27.774Z,33.88
2017-12-21T16:12:55.350Z,57.92
2017-12-21T16:15:22.956Z,41.17
2017-12-21T16:17:50.537Z,23.85
2017-12-21T16:20:18.173Z,28.17
2017-12-21T16:22:45.754Z,24.20
2017-12-21T16:25:13.336Z,27.92
2017-12-21T16:27:40.974Z,20.30
2017-12-21T16:30:08.635Z,17.95
2017-12-21T16:32:36.205Z,23.73
2017-12-21T16:35:03.833Z,19.60
2017-12-21T16:37:31.417Z,23.17
2017-12-21T16:39:59.033Z,30.67
2017-12-21T16:42:27.444Z,25.25
2017-12-21T16:44:55.028Z,31.65
2017-12-21T16:47:22.604Z,22.15
2017-12-21T16:49:50.269Z,27.70
2017-12-21T16:52:18.610Z,27.65
2017-12-21T16:54:46.197Z,32.80
2017-12-21T16:57:13.830Z,33.08
2017-12-21T16:59:41.410Z,24.27
2017-12-21T17:02:08.987Z,19.37
2017-12-21T17:04:37.357Z,18.42
2017-12-21T17:07:05.701Z,19.02
2017-12-21T17:09:33.337Z,18.20
2017-12-21T17:12:03.030Z,18.25
2017-12-21T17:14:30.714Z,12.73
2017-12-21T17:16:58.314Z,13.35
2017-12-21T17:19:25.909Z,13.98
2017-12-21T17:21:53.490Z,12.45
2017-12-21T17:24:21.149Z,11.43
2017-12-21T17:26:48.733Z,13.88
2017-12-21T17:29:16.310Z,13.62
2017-12-21T17:31:44.034Z,24.58
2017-12-21T17:34:11.614Z,18.12
2017-12-21T17:36:39.205Z,21.87
2017-12-21T17:39:07.608Z,16.98
2017-12-21T17:41:35.185Z,23.90
2017-12-21T17:44:02.851Z,46.92
2017-12-21T17:46:30.456Z,29.80
2017-12-21T17:48:58.069Z,25.95
2017-12-21T17:51:25.715Z,33.67
2017-12-21T17:53:53.289Z,30.73
2017-12-21T17:56:20.872Z,27.80
2017-12-21T17:58:48.480Z,30.65
2017-12-21T18:01:16.061Z,27.62
2017-12-21T18:03:43.678Z,31.12
2017-12-21T18:06:12.021Z,30.73
2017-12-21T18:08:39.602Z,35.72
2017-12-21T18:11:07.197Z,29.58
2017-12-21T18:13:34.778Z,31.95
2017-12-21T18:16:02.357Z,27.10
2017-12-21T18:18:29.962Z,27.52
2017-12-21T18:20:58.613Z,30.05
2017-12-21T18:23:26.305Z,28.05
2017-12-21T18:25:53.908Z,29.90
2017-12-21T18:28:21.501Z,31.30
2017-12-21T18:30:49.869Z,30.60
2017-12-21T18:33:17.501Z,30.25
2017-12-21T18:35:45.087Z,31.60
2017-12-21T18:38:13.449Z,37.85
2017-12-21T18:40:41.057Z,30.12
2017-12-21T18:43:08.645Z,32.85
2017-12-21T18:45:36.265Z,32.22
2017-12-21T18:48:04.609Z,43.60
2017-12-21T18:50:32.231Z,37.78
2017-12-21T18:52:59.853Z,34.25
2017-12-21T18:55:28.202Z,29.25
2017-12-21T18:57:55.781Z,36.95
2017-12-21T19:00:23.391Z,35.72
2017-12-21T19:02:51.056Z,32.85
2017-12-21T19:05:18.637Z,36.58
2017-12-21T19:07:46.246Z,37.33
2017-12-21T19:10:13.834Z,38.90
2017-12-21T19:12:41.413Z,38.20
2017-12-21T19:15:09.022Z,38.22
2017-12-21T19:17:36.602Z,37.85
2017-12-21T19:20:04.674Z,33.15
2017-12-21T19:22:32.253Z,33.70
2017-12-21T19:24:59.833Z,37.55
2017-12-21T19:27:27.457Z,39.10
2017-12-21T19:29:55.033Z,35.75
2017-12-21T19:32:22.613Z,31.20
2017-12-21T19:34:50.213Z,36.08
2017-12-21T19:37:17.846Z,31.70
2017-12-21T19:39:46.238Z,32.45
2017-12-21T19:42:13.821Z,32.50
2017-12-21T19:44:41.450Z,27.75
2017-12-21T19:47:09.843Z,31.90
2017-12-21T19:49:37.426Z,37.53
2017-12-21T19:52:05.034Z,37.15
2017-12-21T19:54:33.422Z,39.42
2017-12-21T19:57:01.774Z,41.65
2017-12-21T19:59:29.450Z,39.78
2017-12-21T20:01:57.797Z,39.80
2017-12-21T20:04:26.194Z,40.15
2017-12-21T20:06:53.806Z,45.47
2017-12-21T20:09:21.381Z,41.65
2017-12-21T20:11:48.961Z,37.38
2017-12-21T20:14:16.614Z,41.97
2017-12-21T20:16:44.195Z,41.08
2017-12-21T20:19:12.545Z,41.00
2017-12-21T20:21:40.168Z,38.63
2017-12-21T20:24:07.744Z,40.92
2017-12-21T20:26:35.329Z,43.47
2017-12-21T20:29:02.989Z,37.92
2017-12-21T20:31:30.569Z,40.50
2017-12-21T20:33:58.914Z,41.10
2017-12-21T20:36:26.557Z,41.60
2017-12-21T20:38:54.129Z,37.50
2017-12-21T20:41:21.705Z,40.65
2017-12-21T20:43:49.325Z,36.88
2017-12-21T20:46:16.897Z,45.63
2017-12-21T20:48:44.478Z,36.92
2017-12-21T20:51:12.878Z,39.47
2017-12-21T20:53:41.221Z,36.72
2017-12-21T20:56:08.854Z,37.60
2017-12-21T20:58:36.440Z,40.55
2017-12-21T21:01:04.026Z,38.17
2017-12-21T21:03:31.649Z,35.72
2017-12-21T21:05:59.229Z,37.65
2017-12-21T21:08:26.813Z,39.42
2017-12-21T21:10:55.182Z,36.22
2017-12-21T21:13:23.530Z,32.55
2017-12-21T21:15:51.105Z,33.67
2017-12-21T21:18:18.717Z,30.95
2017-12-21T21:20:46.293Z,38.42
2017-12-21T21:23:13.871Z,42.88
2017-12-21T21:25:41.505Z,42.47
2017-12-21T21:28:09.078Z,42.97
2017-12-21T21:30:36.658Z,38.97
2017-12-21T21:33:04.268Z,42.92
2017-12-21T21:35:31.854Z,40.33
2017-12-21T21:37:59.433Z,45.67
2017-12-21T21:40:27.059Z,56.40
2017-12-21T21:42:54.633Z,35.50
2017-12-21T21:45:22.205Z,38.85
2017-12-21T21:47:49.801Z,43.60
2017-12-21T21:50:18.149Z,39.45
2017-12-21T21:52:45.753Z,35.35
2017-12-21T21:55:13.345Z,32.55
2017-12-21T21:57:40.926Z,35.38
2017-12-21T22:00:08.541Z,30.95
2017-12-21T22:02:36.117Z,32.35
2017-12-21T22:05:03.697Z,30.25
2017-12-21T22:07:31.297Z,28.85
2017-12-21T22:09:58.874Z,29.37
2017-12-21T22:12:26.488Z,33.83
2017-12-21T22:14:54.065Z,28.42
2017-12-21T22:17:22.414Z,36.55
2017-12-21T22:19:50.016Z,33.15
2017-12-21T22:22:17.597Z,29.55
2017-12-21T22:24:45.213Z,32.83
2017-12-21T22:27:13.553Z,28.38
2017-12-21T22:29:41.138Z,28.90
2017-12-21T22:32:09.550Z,28.70
2017-12-21T22:34:37.133Z,28.85
2017-12-21T22:37:04.714Z,30.83
2017-12-21T22:39:32.449Z,29.05
2017-12-21T22:42:00.021Z,32.88
2017-12-21T22:44:27.602Z,29.95
2017-12-21T22:46:55.993Z,43.95
2017-12-21T22:49:24.333Z,31.12
2017-12-21T22:51:51.905Z,43.78
2017-12-21T22:54:19.502Z,32.47
2017-12-21T22:56:47.085Z,39.17
2017-12-21T22:59:14.697Z,37.65
2017-12-21T23:01:42.276Z,39.20
2017-12-21T23:04:10.621Z,36.55
2017-12-21T23:06:38.245Z,36.95
2017-12-21T23:09:05.829Z,36.38
2017-12-21T23:11:33.414Z,36.38
2017-12-21T23:14:01.828Z,41.70
2017-12-21T23:16:29.402Z,37.13
2017-12-21T23:18:56.980Z,36.17
2017-12-21T23:21:24.593Z,36.65
2017-12-21T23:23:52.174Z,36.00
2017-12-21T23:26:19.757Z,36.70
2017-12-21T23:28:47.362Z,37.63
